Decoded Metar for SEGU (GUAYAQUIL in ECUADOR) (IATA:GYE) | Meteo·Mobile Aviation Weather
aviador You're here:

SEGU Decoded Metar

GUAYAQUIL in ECUADOR
Report Time2018-09-20 09:00:00
UTC Time2018-09-20 09:06:23
Flight Rules vfr VFR
Wind220° at 08 kt
W.Decomp.*RWY 21: 7.9 kt HW 1.5 kt RCW
W.Rank220° ranks 1
Current wind is below 220° avg. (8.1)
Visibility9999 m
Phenomena:N/A
Clouds:Few 010 Hf
Broken 040 Hf
Expected CloudBase > 1,200 ft AGL from Temp-Dew spread
Ceiling4,000 ft
Temp21°C (ISA +6)
Dew Point18°C (83% RH)
AAT20.9°C
QNH1009 hPa
Density Alt1,145 ft
Elevation30 ft
Report Wrong Elevation
Raw Report
METAR SEGU 200900Z 22008KT 9999 FEW010 BKN040 21/18 Q1009 NOSIG RMK A2980=

Extra information for SEGU:More info

Metar Taf Metar & Taf Last 4 Metars F.Rules Stats Wind Profile Meteogram Temp Stats Airport Information Weather charts Add Link Nearby VenuesMetar ALERT Operation Metar Decoded Social comments